Aérodrome :
LOGIN :

S'inscrire | Disclaimer

   EN    FR    IT 

 










Légende :    VFR   VFR Marginal   IFR   IFR Intensif   IFR Très Intensif
Visi : 
Plafond : 
>= 8 km
>= 3000ft
5 à 8 km
1000 à 3000 ft
1500m à 5 km
500 à 1000 ft
800 à 1500m
200 à 500 ft
< 800m
< 200 ft
Symboles :   Orages  Brouillard  Fortes neiges  Fortes précipitations  Vent > 20 kt
SIGMETs :   Divers  Orages  Givrage  Turbulence  Onde Orograph.  Cendres Volcan.







- Altitude de l'aérodrome : 290 ft
- Code IATA : LAI
- Voir les cartes d'approche


LFRO - Lannion

DERNIER METAR :
  • 291100Z AUTO 14014KT 9999 BKN049 15/03 Q1012 NOSIG

METARs EXPIRÉS :
  • 291030Z AUTO 16012KT 9999 BKN044 14/04 Q1012 NOSIG
  • 291000Z AUTO 15012KT 9999 BKN041 13/03 Q1013 NOSIG
  • 290930Z AUTO 13011KT 9999 FEW032 14/05 Q1013 NOSIG
  • 290900Z AUTO 14010KT 100V170 9999 FEW030 13/05 Q1013 NOSIG
  • 290830Z AUTO 13008KT 100V170 9999 FEW025 12/06 Q1014 NOSIG

TAF TAF LFRO
Valide du 29 à 06h jusqu'au 30 à 06h UTC


290500Z 2906/3006 12005KT CAVOK
BECMG 2912/2915 14012G22KT
BECMG 3003/3006 RA BKN008
Pas de NOTAMs connus pour ce terrain.



MET'MAP, la Météo Aéronautique d'un coup d'oeil ! - Copyright ORBIFLY Décembre 2007 - Disclaimer

ORBIFLY MET'MAP TEAM :

Programmation & Développement : Alexandra Zaïnal
Conception & Développement : Baudouin d'Aumeries
Co-Programmation & Développement : Marc-Olivier Méhu
Soutien technique & logistique : Manuel Goepfert

Contact : metmap@orbifly.com




SOURCES & CREDITS :

   NOAA